Serval — J8B4154 — position and weather

sailwx.info

Track history (hours):
 
Tides and Currents Weather Stations Pressure Air Temp Water Temp Dewpoint Dewpoint Depression Visibility Wind Speed Wind Dir Waves Ship Positions

Serval

Last reported at 2015-Aug-03 19:33 UTC. Time now 2015-Aug-04 09:44 UTC.
Position N 53°58' E 006°55'.

Length 30 m; draft 4.6 m.

Type: . MMSI: 377103000.

Date/timePositionNaut miles runAvg speedWind from/ knotsBaromVisibWave heightAir tempDewpointWater temp
2015-Aug-03 19:33N 53°58' E 006°55'0 0.4
2015-Aug-03 18:24N 53°58' E 006°56'1 1.2
2015-Aug-03 17:31N 53°58' E 006°54'2 1.9
2015-Aug-03 16:33N 53°58' E 006°57'1 0.0
2015-Aug-03 01:17N 53°58' E 006°56'0 0.1
2015-Aug-03 00:27N 53°58' E 006°56'0 0.0
2015-Aug-02 21:17N 53°58' E 006°56'1 1.0
2015-Aug-02 20:32N 53°58' E 006°58'2 1.7
2015-Aug-02 19:30N 53°58' E 006°55'1 0.0
2015-Aug-02 02:03N 53°58' E 006°55'0 0.1
2015-Aug-02 01:17N 53°58' E 006°55'26 0.6
2015-Jul-31 04:32N 53°37' E 006°28'7 7.2
2015-Jul-31 03:33N 53°35' E 006°39'9 8.8
2015-Jul-31 02:33N 53°29' E 006°50'2 2.1
2015-Jul-31 01:33N 53°27' E 006°50'0 0.0
2015-Jul-31 00:33N 53°27' E 006°50'0 0.0
2015-Jul-30 23:33N 53°27' E 006°50'0 0.0
2015-Jul-30 22:33N 53°27' E 006°50'0 0.0
2015-Jul-30 21:33N 53°27' E 006°50'0 0.0
2015-Jul-30 20:33N 53°27' E 006°50'0 0.0
2015-Jul-30 19:33N 53°27' E 006°50'0 0.0
2015-Jul-30 18:34N 53°27' E 006°50'0 0.0
2015-Jul-30 17:33N 53°27' E 006°50'0 0.0
2015-Jul-30 16:33N 53°27' E 006°50'0 0.0
2015-Jul-30 15:33N 53°27' E 006°50'0 0.0
2015-Jul-30 14:34N 53°27' E 006°50'0 0.0
2015-Jul-30 13:34N 53°27' E 006°50'0 0.0
2015-Jul-30 12:33N 53°27' E 006°50'0 0.0
2015-Jul-30 11:33N 53°27' E 006°50'0 0.0
2015-Jul-30 10:33N 53°27' E 006°50'0 0.0
2015-Jul-30 09:34N 53°27' E 006°50'0 0.0
2015-Jul-30 08:33N 53°27' E 006°50'0 0.0
2015-Jul-30 07:33N 53°27' E 006°50'0 0.0
2015-Jul-30 06:33N 53°27' E 006°50'0 0.0
2015-Jul-30 05:34N 53°27' E 006°50'0 0.0
2015-Jul-30 04:33N 53°27' E 006°50'0 0.0
2015-Jul-30 03:33N 53°27' E 006°50'0 0.0
2015-Jul-30 02:33N 53°27' E 006°50'0 0.0
2015-Jul-30 01:33N 53°27' E 006°50'0 0.0
2015-Jul-30 00:33N 53°27' E 006°50'0 0.0
2015-Jul-29 23:34N 53°27' E 006°50'0 0.0
2015-Jul-29 22:33N 53°27' E 006°50'0 0.0
2015-Jul-29 21:33N 53°27' E 006°50'0 0.0
2015-Jul-29 20:33N 53°27' E 006°50'0 0.0
2015-Jul-29 19:33N 53°27' E 006°50'0 0.0
2015-Jul-29 18:33N 53°27' E 006°50'0 0.0
2015-Jul-29 17:33N 53°27' E 006°50'0 0.0
2015-Jul-29 16:33N 53°27' E 006°50'0 0.0
2015-Jul-29 15:33N 53°27' E 006°50'0 0.0
2015-Jul-29 14:33N 53°27' E 006°50'0 0.0
2015-Jul-29 13:33N 53°27' E 006°50'0 0.0
2015-Jul-29 12:33N 53°27' E 006°50'0 0.0
2015-Jul-29 11:33N 53°27' E 006°50'0 0.0
2015-Jul-29 10:33N 53°27' E 006°50'0 0.0
2015-Jul-29 09:33N 53°27' E 006°50'0 0.0
2015-Jul-29 08:33N 53°27' E 006°50'0 0.3
2015-Jul-29 07:33N 53°27' E 006°50'0 0.1
2015-Jul-29 06:33N 53°27' E 006°50'7 7.1
2015-Jul-29 05:33N 53°33' E 006°43'  
Track history (hours):
 
Tides and Currents Weather Stations Pressure Air Temp Water Temp Dewpoint Dewpoint Depression Visibility Wind Speed Wind Dir Waves Ship Positions

Serval

Last reported at 2015-Aug-03 19:33 UTC. Time now 2015-Aug-04 09:44 UTC.
Position N 53°58' E 006°55'.

Length 30 m; draft 4.6 m.

Type: . MMSI: 377103000.

Date/timePositionNaut miles runAvg speedWind from/ knotsBaromVisibWave heightAir tempDewpointWater temp
2015-Aug-03 19:33N 53°58' E 006°55'0 0.4
2015-Aug-03 18:24N 53°58' E 006°56'1 1.2
2015-Aug-03 17:31N 53°58' E 006°54'2 1.9
2015-Aug-03 16:33N 53°58' E 006°57'1 0.0
2015-Aug-03 01:17N 53°58' E 006°56'0 0.1
2015-Aug-03 00:27N 53°58' E 006°56'0 0.0
2015-Aug-02 21:17N 53°58' E 006°56'1 1.0
2015-Aug-02 20:32N 53°58' E 006°58'2 1.7
2015-Aug-02 19:30N 53°58' E 006°55'1 0.0
2015-Aug-02 02:03N 53°58' E 006°55'0 0.1
2015-Aug-02 01:17N 53°58' E 006°55'26 0.6
2015-Jul-31 04:32N 53°37' E 006°28'7 7.2
2015-Jul-31 03:33N 53°35' E 006°39'9 8.8
2015-Jul-31 02:33N 53°29' E 006°50'2 2.1
2015-Jul-31 01:33N 53°27' E 006°50'0 0.0
2015-Jul-31 00:33N 53°27' E 006°50'0 0.0
2015-Jul-30 23:33N 53°27' E 006°50'0 0.0
2015-Jul-30 22:33N 53°27' E 006°50'0 0.0
2015-Jul-30 21:33N 53°27' E 006°50'0 0.0
2015-Jul-30 20:33N 53°27' E 006°50'0 0.0
2015-Jul-30 19:33N 53°27' E 006°50'0 0.0
2015-Jul-30 18:34N 53°27' E 006°50'0 0.0
2015-Jul-30 17:33N 53°27' E 006°50'0 0.0
2015-Jul-30 16:33N 53°27' E 006°50'0 0.0
2015-Jul-30 15:33N 53°27' E 006°50'0 0.0
2015-Jul-30 14:34N 53°27' E 006°50'0 0.0
2015-Jul-30 13:34N 53°27' E 006°50'0 0.0
2015-Jul-30 12:33N 53°27' E 006°50'0 0.0
2015-Jul-30 11:33N 53°27' E 006°50'0 0.0
2015-Jul-30 10:33N 53°27' E 006°50'0 0.0
2015-Jul-30 09:34N 53°27' E 006°50'0 0.0
2015-Jul-30 08:33N 53°27' E 006°50'0 0.0
2015-Jul-30 07:33N 53°27' E 006°50'0 0.0
2015-Jul-30 06:33N 53°27' E 006°50'0 0.0
2015-Jul-30 05:34N 53°27' E 006°50'0 0.0
2015-Jul-30 04:33N 53°27' E 006°50'0 0.0
2015-Jul-30 03:33N 53°27' E 006°50'0 0.0
2015-Jul-30 02:33N 53°27' E 006°50'0 0.0
2015-Jul-30 01:33N 53°27' E 006°50'0 0.0
2015-Jul-30 00:33N 53°27' E 006°50'0 0.0
2015-Jul-29 23:34N 53°27' E 006°50'0 0.0
2015-Jul-29 22:33N 53°27' E 006°50'0 0.0
2015-Jul-29 21:33N 53°27' E 006°50'0 0.0
2015-Jul-29 20:33N 53°27' E 006°50'0 0.0
2015-Jul-29 19:33N 53°27' E 006°50'0 0.0
2015-Jul-29 18:33N 53°27' E 006°50'0 0.0
2015-Jul-29 17:33N 53°27' E 006°50'0 0.0
2015-Jul-29 16:33N 53°27' E 006°50'0 0.0
2015-Jul-29 15:33N 53°27' E 006°50'0 0.0
2015-Jul-29 14:33N 53°27' E 006°50'0 0.0
2015-Jul-29 13:33N 53°27' E 006°50'0 0.0
2015-Jul-29 12:33N 53°27' E 006°50'0 0.0
2015-Jul-29 11:33N 53°27' E 006°50'0 0.0
2015-Jul-29 10:33N 53°27' E 006°50'0 0.0
2015-Jul-29 09:33N 53°27' E 006°50'0 0.0
2015-Jul-29 08:33N 53°27' E 006°50'0 0.3
2015-Jul-29 07:33N 53°27' E 006°50'0 0.1
2015-Jul-29 06:33N 53°27' E 006°50'7 7.1
2015-Jul-29 05:33N 53°33' E 006°43'  

Dump ship's entire track history